createdAt,value
2023-01-03T00:01:59.535Z,65.39
2023-01-03T00:04:26.813Z,65.24
2023-01-03T00:07:12.301Z,65.24
2023-01-03T00:09:39.235Z,64.76
2023-01-03T00:12:30.484Z,64.57
2023-01-03T00:14:59.465Z,64.10
2023-01-03T00:17:27.691Z,64.09
2023-01-03T00:19:55.012Z,64.33
2023-01-03T00:22:23.146Z,64.41
2023-01-03T00:24:51.942Z,64.26
2023-01-03T00:27:37.725Z,64.36
2023-01-03T00:30:05.535Z,64.35
2023-01-03T00:32:32.601Z,64.39
2023-01-03T00:35:04.718Z,64.58
2023-01-03T00:37:37.142Z,64.92
2023-01-03T00:40:04.947Z,64.83
2023-01-03T00:42:53.323Z,64.80
2023-01-03T00:45:39.599Z,65.15
2023-01-03T00:48:06.677Z,64.98
2023-01-03T00:50:36.872Z,64.82
2023-01-03T00:53:03.801Z,64.69
2023-01-03T00:55:30.667Z,64.79
2023-01-03T00:57:57.538Z,65.13
2023-01-03T01:00:28.773Z,65.05
2023-01-03T01:02:56.256Z,65.13
2023-01-03T01:05:31.098Z,65.16
2023-01-03T01:07:59.186Z,65.21
2023-01-03T01:10:26.076Z,65.32
2023-01-03T01:12:57.003Z,64.87
2023-01-03T01:15:24.035Z,64.95
2023-01-03T01:17:50.951Z,65.11
2023-01-03T01:20:18.030Z,65.16
2023-01-03T01:22:46.164Z,65.35
2023-01-03T01:25:13.115Z,65.30
2023-01-03T01:27:40.032Z,65.52
2023-01-03T01:30:07.592Z,65.53
2023-01-03T01:32:34.567Z,65.53
2023-01-03T01:35:19.892Z,65.58
2023-01-03T01:37:46.809Z,65.33
2023-01-03T01:40:13.702Z,65.75
2023-01-03T01:42:59.047Z,65.44
2023-01-03T01:45:26.019Z,65.66
2023-01-03T01:48:07.847Z,65.25
2023-01-03T01:50:40.059Z,65.31
2023-01-03T01:53:43.982Z,65.42
2023-01-03T01:56:20.923Z,65.31
2023-01-03T01:58:50.667Z,65.57
2023-01-03T02:01:20.492Z,65.40
2023-01-03T02:03:55.614Z,65.60
2023-01-03T02:06:24.505Z,65.59
2023-01-03T02:08:51.794Z,65.54
2023-01-03T02:11:25.112Z,65.42
2023-01-03T02:14:27.536Z,65.33
2023-01-03T02:17:17.340Z,65.32
2023-01-03T02:20:14.715Z,65.54
2023-01-03T02:23:09.331Z,65.24
2023-01-03T02:25:39.337Z,65.10
2023-01-03T02:28:45.265Z,65.05
2023-01-03T02:31:25.406Z,65.10
2023-01-03T02:34:03.922Z,64.91
2023-01-03T02:36:53.814Z,64.95
2023-01-03T02:39:40.998Z,65.12
2023-01-03T02:42:42.675Z,65.40
2023-01-03T02:45:16.773Z,65.30
2023-01-03T02:48:03.777Z,65.07
2023-01-03T02:50:39.597Z,64.98
2023-01-03T02:53:09.883Z,65.02
2023-01-03T02:55:44.942Z,64.80
2023-01-03T02:58:20.844Z,64.87
2023-01-03T03:00:53.140Z,64.77
2023-01-03T03:03:27.054Z,64.56
2023-01-03T03:06:15.835Z,64.88
2023-01-03T03:08:46.114Z,64.59
2023-01-03T03:11:32.613Z,64.60
2023-01-03T03:14:17.948Z,64.87
2023-01-03T03:16:50.243Z,64.73
2023-01-03T03:19:40.580Z,64.87
2023-01-03T03:22:48.795Z,64.84
2023-01-03T03:25:54.756Z,64.78
2023-01-03T03:28:35.871Z,64.92
2023-01-03T03:31:29.902Z,65.26
2023-01-03T03:34:23.557Z,65.11
2023-01-03T03:36:54.419Z,65.05
2023-01-03T03:39:40.911Z,64.78
2023-01-03T03:42:59.810Z,64.89
2023-01-03T03:45:38.971Z,65.13
2023-01-03T03:48:18.171Z,65.40
2023-01-03T03:51:03.974Z,65.50
2023-01-03T03:53:35.290Z,65.46
2023-01-03T03:56:26.006Z,65.37
2023-01-03T03:58:58.015Z,65.56
2023-01-03T04:01:27.351Z,65.55
2023-01-03T04:04:00.497Z,65.05
2023-01-03T04:06:38.368Z,65.55
2023-01-03T04:09:05.592Z,65.58
2023-01-03T04:11:32.438Z,65.87
2023-01-03T04:13:59.379Z,65.99
2023-01-03T04:16:26.329Z,66.51
2023-01-03T04:18:53.429Z,66.47
2023-01-03T04:21:21.203Z,66.46
2023-01-03T04:23:48.747Z,66.57
2023-01-03T04:26:16.035Z,66.50
2023-01-03T04:28:43.005Z,66.37
2023-01-03T04:31:09.981Z,66.27
2023-01-03T04:33:37.131Z,66.33
2023-01-03T04:36:04.351Z,66.15
2023-01-03T04:38:31.366Z,66.53
2023-01-03T04:41:04.931Z,66.14
2023-01-03T04:43:54.792Z,66.45
2023-01-03T04:49:27.683Z,66.66
2023-01-03T04:51:54.595Z,66.82
2023-01-03T04:54:21.565Z,67.17
2023-01-03T04:56:48.483Z,67.16
2023-01-03T04:59:15.413Z,67.19
2023-01-03T05:01:52.256Z,67.44
2023-01-03T05:04:19.526Z,67.40
2023-01-03T05:07:05.169Z,67.78
2023-01-03T05:09:32.123Z,67.30
2023-01-03T05:11:59.171Z,67.17
2023-01-03T05:14:26.111Z,67.18
2023-01-03T05:17:11.570Z,67.07
2023-01-03T05:19:58.561Z,67.10
2023-01-03T05:22:44.161Z,67.26
2023-01-03T05:25:29.814Z,67.39
2023-01-03T05:27:58.377Z,67.30
2023-01-03T05:30:25.802Z,67.22
2023-01-03T05:32:52.718Z,67.23
2023-01-03T05:35:19.611Z,67.54
2023-01-03T05:37:46.903Z,67.44
2023-01-03T05:40:13.956Z,67.45
2023-01-03T05:42:40.894Z,67.40
2023-01-03T05:45:09.084Z,68.28
2023-01-03T05:47:35.955Z,68.05
2023-01-03T05:50:02.884Z,67.85
2023-01-03T05:52:29.784Z,68.25
2023-01-03T05:54:56.868Z,68.29
2023-01-03T05:57:24.737Z,68.27
2023-01-03T06:02:36.185Z,68.07
2023-01-03T06:05:03.078Z,68.17
2023-01-03T06:07:31.433Z,67.64
2023-01-03T06:09:58.347Z,67.88
2023-01-03T06:12:44.186Z,68.07
2023-01-03T06:15:11.269Z,68.38
2023-01-03T06:17:59.073Z,68.18
2023-01-03T06:20:27.265Z,67.72
2023-01-03T06:22:54.714Z,67.67
2023-01-03T06:25:22.820Z,67.56
2023-01-03T06:27:49.863Z,68.04
2023-01-03T06:30:16.939Z,67.83
2023-01-03T06:32:44.537Z,67.35
2023-01-03T06:35:12.107Z,67.74
2023-01-03T06:37:39.141Z,67.68
2023-01-03T06:40:07.804Z,67.87
2023-01-03T06:42:53.901Z,67.91
2023-01-03T06:45:39.183Z,67.83
2023-01-03T06:48:42.408Z,67.80
2023-01-03T06:51:29.529Z,67.63
2023-01-03T06:54:21.153Z,67.83
2023-01-03T06:56:48.352Z,67.58
2023-01-03T06:59:15.204Z,67.24
2023-01-03T07:01:42.323Z,67.28
2023-01-03T07:04:09.278Z,67.30
2023-01-03T07:06:36.369Z,66.99
2023-01-03T07:09:03.535Z,67.17
2023-01-03T07:11:30.636Z,67.05
2023-01-03T07:13:58.976Z,66.87
2023-01-03T07:16:53.737Z,67.15
2023-01-03T07:19:21.394Z,67.47
2023-01-03T07:21:48.333Z,67.12
2023-01-03T07:24:18.785Z,66.97
2023-01-03T07:26:45.876Z,66.91
2023-01-03T07:29:13.667Z,66.55
2023-01-03T07:31:44.112Z,66.56
2023-01-03T07:34:11.108Z,66.72
2023-01-03T07:36:38.172Z,66.59
2023-01-03T07:39:05.274Z,67.19
2023-01-03T07:41:50.888Z,66.50
2023-01-03T07:44:19.446Z,66.39
2023-01-03T07:46:46.403Z,66.25
2023-01-03T07:49:13.412Z,66.17
2023-01-03T07:51:40.509Z,66.22
2023-01-03T07:54:07.965Z,65.92
2023-01-03T07:56:35.282Z,65.80
2023-01-03T07:59:02.450Z,65.85
2023-01-03T08:01:30.656Z,65.72
2023-01-03T08:03:58.109Z,66.16
2023-01-03T08:06:25.684Z,65.86
2023-01-03T08:09:11.394Z,65.78
2023-01-03T08:11:57.611Z,65.82
2023-01-03T08:14:26.500Z,65.53
2023-01-03T08:16:55.138Z,65.50
2023-01-03T08:19:22.278Z,65.53
2023-01-03T08:21:49.217Z,65.44
2023-01-03T08:24:16.154Z,65.22
2023-01-03T08:26:43.115Z,65.59
2023-01-03T08:29:10.066Z,65.51
2023-01-03T08:31:42.713Z,65.43
2023-01-03T08:34:18.605Z,65.44
2023-01-03T08:36:52.060Z,65.24
2023-01-03T08:39:24.638Z,64.88
2023-01-03T08:41:59.521Z,64.79
2023-01-03T08:44:26.882Z,64.83
2023-01-03T08:46:55.823Z,64.47
2023-01-03T08:49:23.214Z,64.63
2023-01-03T08:51:50.143Z,64.07
2023-01-03T08:57:01.162Z,64.32
2023-01-03T08:59:28.255Z,64.16
2023-01-03T09:02:02.008Z,63.96
2023-01-03T09:04:29.207Z,63.60
2023-01-03T09:06:56.718Z,64.14
2023-01-03T09:09:23.608Z,63.75
2023-01-03T09:11:50.625Z,63.80
2023-01-03T09:14:17.603Z,63.67
2023-01-03T09:16:48.910Z,63.92
2023-01-03T09:19:16.400Z,63.78
2023-01-03T09:21:43.385Z,63.43
2023-01-03T09:24:10.360Z,63.33
2023-01-03T09:26:56.018Z,63.47
2023-01-03T09:29:23.336Z,63.81
2023-01-03T09:31:51.573Z,63.66
2023-01-03T09:34:18.933Z,63.70
2023-01-03T09:36:45.855Z,63.44
2023-01-03T09:39:14.462Z,63.24
2023-01-03T09:41:42.247Z,63.50
2023-01-03T09:44:10.456Z,63.44
2023-01-03T09:46:38.090Z,63.40
2023-01-03T09:49:07.414Z,63.53
2023-01-03T09:52:00.557Z,63.19
2023-01-03T09:54:56.349Z,63.39
2023-01-03T09:57:51.499Z,63.24
2023-01-03T10:00:54.694Z,63.30
2023-01-03T10:03:51.688Z,63.25
2023-01-03T10:06:47.474Z,63.11
2023-01-03T10:09:23.314Z,63.08
2023-01-03T10:12:21.380Z,62.74
2023-01-03T10:15:00.972Z,62.96
2023-01-03T10:17:49.058Z,62.76
2023-01-03T10:20:33.932Z,62.20
2023-01-03T10:23:01.276Z,62.50
2023-01-03T10:25:29.444Z,62.38
2023-01-03T10:28:06.802Z,62.13
2023-01-03T10:31:08.591Z,62.09
2023-01-03T10:33:39.800Z,61.81
2023-01-03T10:36:08.753Z,61.78
2023-01-03T10:38:44.709Z,61.86
2023-01-03T10:41:44.631Z,60.63
2023-01-03T10:44:25.813Z,61.46
2023-01-03T10:46:55.295Z,61.40
2023-01-03T10:49:28.306Z,61.55
2023-01-03T10:52:14.795Z,61.48
2023-01-03T10:54:42.263Z,61.32
2023-01-03T10:57:39.944Z,60.52
2023-01-03T11:00:25.106Z,60.59
2023-01-03T11:02:53.602Z,60.53
2023-01-03T11:05:24.500Z,60.58
2023-01-03T11:08:04.376Z,60.50
2023-01-03T11:10:39.038Z,59.17
2023-01-03T11:13:26.477Z,58.84
2023-01-03T11:15:58.684Z,59.60
2023-01-03T11:18:29.356Z,60.04
2023-01-03T11:21:08.196Z,59.67
2023-01-03T11:24:14.193Z,58.53
2023-01-03T11:26:43.982Z,58.75
2023-01-03T11:29:39.876Z,58.49
2023-01-03T11:32:25.588Z,58.14
2023-01-03T11:35:40.295Z,58.13
2023-01-03T11:38:45.576Z,58.06
2023-01-03T11:41:41.440Z,57.64
2023-01-03T11:44:36.960Z,57.69
2023-01-03T11:47:18.482Z,57.64
2023-01-03T11:49:54.317Z,58.08
2023-01-03T11:52:39.828Z,58.12
2023-01-03T11:55:48.350Z,57.93
2023-01-03T11:58:33.946Z,57.89
2023-01-03T12:01:08.288Z,58.23
2023-01-03T12:03:44.043Z,58.24
2023-01-03T12:06:16.439Z,56.89
2023-01-03T12:09:13.432Z,57.02
2023-01-03T12:11:40.818Z,57.21
2023-01-03T12:14:16.177Z,56.54
2023-01-03T12:17:06.274Z,55.87
2023-01-03T12:19:46.089Z,55.57
2023-01-03T12:22:32.709Z,55.93
2023-01-03T12:25:17.578Z,55.82
2023-01-03T12:28:15.364Z,55.45
2023-01-03T12:30:52.302Z,55.60
2023-01-03T12:33:54.380Z,55.14
2023-01-03T12:37:01.062Z,56.26
2023-01-03T12:39:36.754Z,55.03
2023-01-03T12:42:22.207Z,56.61
2023-01-03T12:47:51.423Z,53.95
2023-01-03T12:50:36.365Z,53.61
2023-01-03T12:53:12.080Z,53.24
2023-01-03T12:56:12.824Z,53.94
2023-01-03T12:58:51.858Z,53.00
2023-01-03T13:01:27.175Z,53.61
2023-01-03T13:04:00.642Z,53.60
2023-01-03T13:06:33.064Z,53.12
2023-01-03T13:09:04.506Z,52.76
2023-01-03T13:11:43.962Z,52.05
2023-01-03T13:14:26.379Z,53.07
2023-01-03T13:16:57.076Z,53.46
2023-01-03T13:19:24.065Z,53.02
2023-01-03T13:21:53.768Z,53.49
2023-01-03T13:25:19.218Z,53.74
2023-01-03T13:27:51.378Z,54.64
2023-01-03T13:30:30.953Z,54.87
2023-01-03T13:33:00.602Z,55.16
2023-01-03T13:35:33.612Z,54.98
2023-01-03T13:38:24.566Z,55.08
2023-01-03T13:43:50.690Z,54.87
2023-01-03T13:46:31.754Z,54.96
2023-01-03T13:49:22.781Z,55.50
2023-01-03T13:51:54.957Z,55.63
2023-01-03T13:54:21.868Z,55.47
2023-01-03T13:56:48.725Z,55.68
2023-01-03T13:59:15.739Z,55.70
2023-01-03T14:02:26.518Z,55.81
2023-01-03T14:05:21.039Z,56.27
2023-01-03T14:08:35.572Z,56.81
2023-01-03T14:11:40.245Z,58.17
2023-01-03T14:14:12.967Z,58.70
2023-01-03T14:16:47.982Z,59.77
2023-01-03T14:19:32.592Z,60.93
2023-01-03T14:22:14.085Z,61.08
2023-01-03T14:24:50.256Z,60.68
2023-01-03T14:27:24.469Z,61.04
2023-01-03T14:29:53.531Z,61.35
2023-01-03T14:35:32.801Z,61.46
2023-01-03T14:38:06.450Z,61.30
2023-01-03T14:40:34.592Z,61.81
2023-01-03T14:43:05.377Z,61.05
2023-01-03T14:45:32.378Z,61.24
2023-01-03T14:47:59.447Z,61.17
2023-01-03T14:50:29.285Z,61.09
2023-01-03T14:52:59.072Z,61.00
2023-01-03T14:55:29.610Z,61.16
2023-01-03T14:57:58.815Z,61.06
2023-01-03T15:00:36.562Z,61.54
2023-01-03T15:03:05.623Z,61.10
2023-01-03T15:08:43.583Z,61.86
2023-01-03T15:14:06.682Z,61.78
2023-01-03T15:16:40.871Z,61.62
2023-01-03T15:19:07.813Z,61.79
2023-01-03T15:21:35.560Z,61.07
2023-01-03T15:24:03.100Z,61.61
2023-01-03T15:26:36.145Z,61.86
2023-01-03T15:29:20.715Z,61.70
2023-01-03T15:31:53.609Z,61.84
2023-01-03T15:34:41.942Z,61.62
2023-01-03T15:37:24.476Z,61.73
2023-01-03T15:39:54.985Z,61.93
2023-01-03T15:42:50.134Z,61.35
2023-01-03T15:45:44.478Z,61.79
2023-01-03T15:48:19.358Z,61.85
2023-01-03T15:50:56.093Z,60.87
2023-01-03T15:53:41.177Z,60.48
2023-01-03T15:56:27.955Z,60.81
2023-01-03T15:58:56.773Z,60.21
2023-01-03T16:01:24.951Z,58.77
2023-01-03T16:03:53.661Z,58.61
2023-01-03T16:06:21.015Z,58.71
2023-01-03T16:08:48.148Z,58.58
2023-01-03T16:11:33.815Z,58.37
2023-01-03T16:14:21.471Z,58.44
2023-01-03T16:16:54.396Z,57.87
2023-01-03T16:19:24.733Z,57.81
2023-01-03T16:22:32.416Z,57.95
2023-01-03T16:24:46.571Z,57.75
2023-01-03T16:27:20.147Z,57.65
2023-01-03T16:29:47.704Z,57.71
2023-01-03T16:32:17.724Z,57.62
2023-01-03T16:34:44.912Z,57.61
2023-01-03T16:37:11.913Z,57.68
2023-01-03T16:39:45.763Z,58.03
2023-01-03T16:42:19.993Z,57.74
2023-01-03T16:45:06.171Z,57.87
2023-01-03T16:47:35.129Z,57.66
2023-01-03T16:50:23.004Z,57.88
2023-01-03T16:52:55.400Z,57.78
2023-01-03T16:55:32.759Z,57.89
2023-01-03T16:58:00.580Z,57.73
2023-01-03T17:00:32.149Z,58.19
2023-01-03T17:03:00.649Z,58.04
2023-01-03T17:05:48.076Z,57.85
2023-01-03T17:08:30.639Z,57.81
2023-01-03T17:10:58.685Z,57.56
2023-01-03T17:16:17.819Z,57.40
2023-01-03T17:18:46.015Z,57.12
2023-01-03T17:21:25.839Z,57.24
2023-01-03T17:23:57.257Z,57.27
2023-01-03T17:26:25.416Z,57.09
2023-01-03T17:28:55.162Z,57.25
2023-01-03T17:31:24.529Z,57.11
2023-01-03T17:33:52.378Z,57.06
2023-01-03T17:36:25.564Z,56.92
2023-01-03T17:38:54.931Z,57.05
2023-01-03T17:41:25.272Z,57.38
2023-01-03T17:43:53.771Z,57.17
2023-01-03T17:46:43.119Z,57.24
2023-01-03T17:49:26.845Z,57.25
2023-01-03T17:51:55.685Z,57.78
2023-01-03T17:54:31.743Z,57.29
2023-01-03T17:56:59.550Z,57.80
2023-01-03T17:59:27.116Z,57.99
2023-01-03T18:02:02.491Z,57.37
2023-01-03T18:04:50.067Z,57.57
2023-01-03T18:07:22.644Z,57.34
2023-01-03T18:09:51.091Z,57.31
2023-01-03T18:12:19.678Z,57.29
2023-01-03T18:14:48.360Z,57.20
2023-01-03T18:17:30.435Z,57.02
2023-01-03T18:19:59.080Z,57.12
2023-01-03T18:22:32.065Z,57.16
2023-01-03T18:24:59.058Z,57.31
2023-01-03T18:27:27.719Z,57.32
2023-01-03T18:29:54.768Z,57.42
2023-01-03T18:32:27.234Z,57.30
2023-01-03T18:34:56.750Z,57.06
2023-01-03T18:37:28.771Z,57.35
2023-01-03T18:39:56.119Z,57.39
2023-01-03T18:42:41.683Z,56.94
2023-01-03T18:45:12.028Z,57.51
2023-01-03T18:47:39.039Z,57.12
2023-01-03T18:50:07.131Z,57.27
2023-01-03T18:52:59.805Z,57.23
2023-01-03T18:55:30.190Z,57.04
2023-01-03T18:58:00.368Z,56.99
2023-01-03T19:00:27.678Z,57.38
2023-01-03T19:02:54.928Z,57.29
2023-01-03T19:08:08.371Z,57.07
2023-01-03T19:10:35.336Z,57.37
2023-01-03T19:13:02.208Z,57.36
2023-01-03T19:15:30.564Z,57.43
2023-01-03T19:17:58.032Z,57.58
2023-01-03T19:20:27.174Z,57.96
2023-01-03T19:22:55.883Z,57.99
2023-01-03T19:25:26.409Z,57.59
2023-01-03T19:27:56.226Z,57.96
2023-01-03T19:30:38.763Z,57.70
2023-01-03T19:33:11.284Z,57.59
2023-01-03T19:35:38.236Z,57.99
2023-01-03T19:38:05.725Z,57.88
2023-01-03T19:40:34.495Z,57.91
2023-01-03T19:43:02.437Z,58.18
2023-01-03T19:45:32.827Z,57.95
2023-01-03T19:48:02.533Z,57.86
2023-01-03T19:50:33.325Z,57.71
2023-01-03T19:53:04.050Z,58.09
2023-01-03T19:55:33.571Z,57.96
2023-01-03T19:58:04.934Z,57.95
2023-01-03T20:00:32.860Z,57.70
2023-01-03T20:05:48.120Z,58.00
2023-01-03T20:08:15.047Z,58.28
2023-01-03T20:10:44.019Z,58.23
2023-01-03T20:13:23.476Z,57.94
2023-01-03T20:15:53.092Z,58.09
2023-01-03T20:18:35.929Z,58.05
2023-01-03T20:21:24.022Z,57.83
2023-01-03T20:23:58.195Z,58.32
2023-01-03T20:26:30.810Z,58.09
2023-01-03T20:28:59.001Z,58.11
2023-01-03T20:31:26.446Z,57.60
2023-01-03T20:33:53.432Z,57.69
2023-01-03T20:36:27.755Z,57.85
2023-01-03T20:38:56.396Z,57.74
2023-01-03T20:41:36.578Z,57.87
2023-01-03T20:44:05.906Z,58.00
2023-01-03T20:46:41.963Z,57.48
2023-01-03T20:49:24.571Z,57.62
2023-01-03T20:51:51.828Z,57.76
2023-01-03T20:54:37.348Z,57.80
2023-01-03T20:57:13.847Z,57.80
2023-01-03T20:59:40.917Z,57.73
2023-01-03T21:02:10.778Z,57.53
2023-01-03T21:04:39.108Z,57.70
2023-01-03T21:07:11.464Z,57.63
2023-01-03T21:09:38.804Z,58.01
2023-01-03T21:12:05.794Z,57.79
2023-01-03T21:14:32.744Z,57.71
2023-01-03T21:16:59.748Z,57.75
2023-01-03T21:19:26.732Z,57.84
2023-01-03T21:21:55.241Z,57.80
2023-01-03T21:24:24.819Z,58.05
2023-01-03T21:26:51.801Z,57.77
2023-01-03T21:29:18.790Z,57.66
2023-01-03T21:31:54.926Z,58.09
2023-01-03T21:34:22.152Z,58.07
2023-01-03T21:36:49.296Z,57.94
2023-01-03T21:39:16.347Z,57.85
2023-01-03T21:42:02.046Z,57.81
2023-01-03T21:44:29.036Z,57.87
2023-01-03T21:46:56.014Z,58.27
2023-01-03T21:49:23.131Z,58.37
2023-01-03T21:51:50.007Z,58.56
2023-01-03T21:54:17.159Z,58.42
2023-01-03T21:57:23.329Z,58.37
2023-01-03T21:59:50.625Z,58.70
2023-01-03T22:02:36.159Z,58.77
2023-01-03T22:05:03.464Z,58.94
2023-01-03T22:07:32.798Z,59.04
2023-01-03T22:10:18.599Z,58.97
2023-01-03T22:12:58.122Z,58.94
2023-01-03T22:15:25.954Z,58.76
2023-01-03T22:17:53.700Z,58.71
2023-01-03T22:20:23.343Z,58.67
2023-01-03T22:22:50.441Z,58.52
2023-01-03T22:25:21.156Z,58.78
2023-01-03T22:27:48.477Z,58.89
2023-01-03T22:30:17.994Z,58.46
2023-01-03T22:32:45.611Z,58.93
2023-01-03T22:35:14.852Z,59.24
2023-01-03T22:37:42.506Z,59.06
2023-01-03T22:40:13.512Z,59.02
2023-01-03T22:42:41.350Z,58.91
2023-01-03T22:45:09.899Z,58.84
2023-01-03T22:47:37.954Z,59.00
2023-01-03T22:50:07.328Z,59.16
2023-01-03T22:52:35.352Z,59.19
2023-01-03T22:55:02.329Z,59.91
2023-01-03T22:57:29.749Z,59.55
2023-01-03T22:59:56.621Z,59.69
2023-01-03T23:02:29.316Z,60.09
2023-01-03T23:04:56.358Z,60.06
2023-01-03T23:07:24.417Z,59.99
2023-01-03T23:09:51.599Z,60.54
2023-01-03T23:12:36.924Z,60.22
2023-01-03T23:15:04.751Z,60.60
2023-01-03T23:17:50.314Z,60.45
2023-01-03T23:20:19.378Z,60.37
2023-01-03T23:22:46.240Z,60.43
2023-01-03T23:25:13.157Z,60.23
2023-01-03T23:27:40.140Z,59.98
2023-01-03T23:30:07.716Z,60.02
2023-01-03T23:32:34.759Z,59.59
2023-01-03T23:35:01.658Z,60.06
2023-01-03T23:37:28.756Z,60.16
2023-01-03T23:39:55.625Z,60.20
2023-01-03T23:42:22.561Z,60.27
2023-01-03T23:44:49.647Z,60.29
2023-01-03T23:47:16.544Z,60.25
2023-01-03T23:49:43.459Z,60.25
2023-01-03T23:52:10.516Z,60.45
2023-01-03T23:55:00.746Z,60.37
2023-01-03T23:57:29.466Z,60.44
2023-01-03T23:59:56.451Z,60.35
